AirNav   Pilot Hours Calculator
 
 1715 users online  

WN48 Kimbrel Farm Airport
Oakville, Washington, USA

GOING TO OAKVILLE?


FAA INFORMATION EFFECTIVE 04 NOVEMBER 2021

Location

FAA Identifier: WN48
Lat/Long: 46-47-25.3580N 123-18-37.5370W
46-47.422633N 123-18.625617W
46.7903772,-123.3104269
(estimated)
Elevation: 139 ft. / 42.4 m (surveyed)
Variation: 20E (1985)
From city: 3 miles SW of OAKVILLE, WA
Time zone: UTC -7 (UTC -8 during Standard Time)
Zip code: 98568

Airport Operations

Airport use: Private use. Permission required prior to landing
Activation date: 07/1984
Control tower: no
ARTCC: SEATTLE CENTER
FSS: SEATTLE FLIGHT SERVICE STATION
Attendance: CONTINUOUS
Wind indicator: yes
Segmented circle: no

Airport Communications

WX AWOS-3 at CLS (15 nm SE): 118.025 (360-740-5164)
WX ASOS at OLM (20 nm NE): 135.725 (360-754-0781)

Nearby radio navigation aids

VOR radial/distance  VOR name  Freq  Var
OLMr218/20.0OLYMPIA VORTAC113.4019E
HQMr086/35.7HOQUIAM VORTAC117.7019E

Airport Services

Runway Information

Runway 16/34

Dimensions: 1935 x 60 ft. / 590 x 18 m
Surface: turf
RUNWAY 16  RUNWAY 34
Traffic pattern: leftleft
Obstructions: 30 ft. trees, 50 ft. from runwaynone

Airport Ownership and Management from official FAA records

Ownership: Privately-owned
Owner: MICHAEL G. KIMBREL
1333 GARRARD CREEK ROAD
OAKVILLE, WA 98568
Phone (360) 273-9202
Manager: MICHAEL G. KIMBREL
1333 GARRARD CREEK ROAD
OAKVILLE, WA 98568
Phone (360) 273-9202

Airport Operational Statistics

Aircraft based on the field: 11
Single engine airplanes: 6
Multi engine airplanes: 2
Ultralights: 3
    

Additional Remarks

RWY 16/34 SOFT WHEN WET.
FOR CD CTC SEATTLE ARTCC AT 253-351-3694.

Instrument Procedures

There are no published instrument procedures at WN48.

Some nearby airports with instrument procedures:

KCLS - Chehalis-Centralia Airport (15 nm SE)
KOLM - Olympia Regional Airport (20 nm NE)
KSHN - Sanderson Field Airport (27 nm N)
KHQM - Bowerman Airport (28 nm NW)
KTDO - Ed Carlson Memorial Field - South Lewis County Airport (28 nm SE)
 
Loc | Ops | Rwys | IFR | FBO | Links
Com | Nav | Svcs | Stats | Notes
Area around WN48 (Kimbrel Farm Airport)
 
Road maps at: MapQuest Bing Google
 
Aerial photo
WARNING: Photo may not be current or correct
Aerial photo of WN48 (Kimbrel Farm Airport)
Do you have a better or more recent aerial photo of Kimbrel Farm Airport that you would like to share? If so, please send us your photo.

 
Sectional chart

 
Airport distance calculator
Flying to Kimbrel Farm Airport? Find the distance to fly.

From to WN48

Sunrise and sunset
Times for 29-Nov-2021
 Local
(UTC-8)
 Zulu
(UTC)
Morning civil twilight07:0215:02
Sunrise07:3615:36
Sunset16:2700:27
Evening civil twilight17:0101:01

Current date and time
Zulu (UTC)  29-Nov-2021 23:00:30
Local (UTC-8)  29-Nov-2021 15:00:30
 
METAR
KCLS 
15nm SE 
292255Z AUTO 17008KT 140V210 10SM SCT020 SCT025 15/12 A3025 RMK AO2
KOLM 
20nm NE 
292254Z 18006KT 10SM FEW028 BKN042 14/12 A3024 RMK AO2 SLP240 T01390117
KSHN 
28nm N 
292253Z AUTO 00000KT 10SM BKN009 BKN019 OVC026 13/12 A3022 RMK AO2 CIG 007V011 SLP234 T01330122
KHQM 
28nm NW 
292253Z AUTO 20005KT 10SM SCT010 SCT016 BKN055 13/12 A3023 RMK AO2 SLP239 T01330117
TAF
KOLM 
20nm NE 
291720Z 2918/3018 00000KT 6SM BR OVC006 FM292000 21007KT P6SM BKN013 OVC025 FM300000 20005KT P6SM OVC050 FM300600 21004KT 4SM BR SCT005 OVC015
NOTAMs
Click for the latest NOTAMs
NOTAMs are issued by the DoD/FAA and will open in a separate window not controlled by AirNav.

 

 
 

Would you like to see your business listed on this page?

 If your business provides an interesting product or service to pilots, flight crews, aircraft, or users of the Kimbrel Farm Airport, you should consider listing it here.  To start the listing process, click on the button below
 
Add a business
 

Other Pages about Kimbrel Farm Airport

Update a link
 
Copyright © AirNav, LLC. All rights reserved. Privacy Policy  Contact